Time;durP1;ratioP1;P1;durP2;ratioP2;P2;SDS_P1;SDS_P2;PMS_P1;PMS_P2;Temp;Humidity;BMP_temperature;BMP_pressure;BME280_temperature;BME280_humidity;BME280_pressure;Samples;Min_cycle;Max_cycle;Signal;HPM_P1;HPM_P2
2022/12/28 00:01:28;;;;;;;3.47;1.98;;;;;;;11.41;50.25;100663.59;3148234;28;20155;-69
2022/12/28 00:02:59;;;;;;;4.30;2.17;;;;;;;11.42;49.80;100673.97;3150331;28;20445;-69
2022/12/28 00:04:31;;;;;;;3.10;1.83;;;;;;;11.42;49.80;100673.97;3155520;28;20532;-69
2022/12/28 00:06:03;;;;;;;3.63;2.00;;;;;;;11.38;49.97;100669.75;3157390;28;20048;-69
2022/12/28 00:07:35;;;;;;;3.50;1.90;;;;;;;11.43;49.91;100677.44;3157707;28;20063;-70
2022/12/28 00:09:10;;;;;;;3.50;1.95;;;;;;;11.43;49.95;100680.03;3153226;28;20053;-68
2022/12/28 00:10:43;;;;;;;5.45;2.40;;;;;;;10.83;49.89;100581.28;3149883;28;20117;-69
2022/12/28 00:12:15;;;;;;;4.20;2.15;;;;;;;11.40;49.58;100667.97;3152386;28;20044;-69
2022/12/28 00:13:47;;;;;;;4.95;2.10;;;;;;;11.43;49.75;100672.22;3153065;28;20047;-69
2022/12/28 00:15:18;;;;;;;3.75;2.13;;;;;;;11.43;49.73;100672.22;3150820;28;20052;-69
2022/12/28 00:16:50;;;;;;;5.25;2.33;;;;;;;11.43;49.74;100680.91;3153938;28;20055;-70
2022/12/28 00:18:22;;;;;;;5.43;2.55;;;;;;;11.40;49.62;100683.59;3157273;28;20097;-69
2022/12/28 00:19:54;;;;;;;6.00;2.05;;;;;;;11.43;49.14;100685.25;3157764;28;20048;-70
2022/12/28 00:21:26;;;;;;;3.35;2.03;;;;;;;11.27;49.48;100664.06;3155800;28;20052;-70
2022/12/28 00:22:57;;;;;;;4.35;2.00;;;;;;;11.40;49.09;100683.59;3153332;28;20670;-69
2022/12/28 00:24:29;;;;;;;4.57;2.17;;;;;;;11.36;48.95;100674.19;3157451;28;20050;-69
2022/12/28 00:26:07;;;;;;;3.88;1.70;;;;;;;11.38;48.91;100673.22;3157127;28;20060;-70
2022/12/28 00:27:40;;;;;;;3.28;1.63;;;;;;;11.36;49.03;100667.22;3156793;28;20433;-70
2022/12/28 00:29:11;;;;;;;5.80;2.00;;;;;;;11.34;49.16;100676.00;3145082;28;20383;-70
2022/12/28 00:30:42;;;;;;;4.25;1.85;;;;;;;11.35;49.16;100677.69;3132576;28;20049;-69
2022/12/28 00:32:14;;;;;;;14.05;2.10;;;;;;;11.35;48.92;100678.53;3156398;28;20055;-70
2022/12/28 00:33:45;;;;;;;4.40;2.15;;;;;;;11.36;48.95;100682.03;3157234;28;20538;-69
2022/12/28 00:35:17;;;;;;;2.83;1.67;;;;;;;11.37;48.74;100679.34;3157604;28;20139;-70
2022/12/28 00:36:49;;;;;;;4.95;1.77;;;;;;;11.39;48.74;100679.31;3156662;28;20105;-70
2022/12/28 00:38:21;;;;;;;5.63;1.83;;;;;;;11.39;49.10;100685.38;3153947;28;20051;-70
2022/12/28 00:39:53;;;;;;;4.35;1.85;;;;;;;11.40;48.96;100686.22;3146011;28;20310;-68
2022/12/28 00:41:25;;;;;;;4.45;2.35;;;;;;;11.37;48.56;100681.94;3152314;28;20100;-68
2022/12/28 00:42:59;;;;;;;4.68;1.88;;;;;;;11.41;48.89;100692.28;3157218;28;20056;-68
2022/12/28 00:44:30;;;;;;;;;;;;;;;11.30;48.95;100690.06;3157751;28;20504;-70
2022/12/28 00:46:04;;;;;;;2.22;1.40;;;;;;;11.28;48.81;100678.81;3157296;28;19919;-69
2022/12/28 00:47:36;;;;;;;3.88;2.10;;;;;;;11.29;48.86;100677.91;3157268;28;20052;-69
2022/12/28 00:49:08;;;;;;;4.00;1.90;;;;;;;11.35;48.72;100688.97;3157077;28;20382;-70
2022/12/28 00:50:40;;;;;;;2.53;1.60;;;;;;;11.37;48.36;100694.16;3156900;28;20060;-69
2022/12/28 00:52:12;;;;;;;3.50;1.83;;;;;;;11.34;48.57;100681.22;3147577;28;20048;-69
2022/12/28 00:53:44;;;;;;;4.00;1.77;;;;;;;11.33;48.57;100677.75;3157340;28;20133;-70
2022/12/28 00:55:16;;;;;;;4.18;2.10;;;;;;;11.42;48.45;100691.38;3157141;28;20052;-69
2022/12/28 00:56:48;;;;;;;3.83;2.08;;;;;;;11.43;48.18;100691.31;3153598;28;20110;-69
2022/12/28 00:58:21;;;;;;;4.82;2.40;;;;;;;11.32;48.41;100672.59;3133471;28;20126;-69
2022/12/28 00:59:53;;;;;;;3.55;2.08;;;;;;;11.39;48.27;100687.13;3156681;28;20048;-70
2022/12/28 01:01:27;;;;;;;2.95;1.65;;;;;;;11.40;48.26;100694.03;3147632;28;20433;-69
2022/12/28 01:02:58;;;;;;;4.40;2.17;;;;;;;11.42;48.01;100701.78;3150055;28;20055;-68
2022/12/28 01:04:30;;;;;;;3.58;1.73;;;;;;;11.40;48.08;100701.88;3154357;28;20048;-68
2022/12/28 01:06:04;;;;;;;3.10;1.63;;;;;;;11.39;48.00;100694.97;3157340;28;20418;-69
2022/12/28 01:07:36;;;;;;;3.47;2.17;;;;;;;11.28;48.07;100686.63;3150189;28;20557;-69
2022/12/28 01:09:08;;;;;;;3.90;1.85;;;;;;;11.32;47.79;100699.50;3157390;28;20511;-70
2022/12/28 01:10:40;;;;;;;3.55;2.10;;;;;;;11.33;47.65;100692.56;3154869;28;20048;-70
2022/12/28 01:12:11;;;;;;;5.20;2.10;;;;;;;11.33;48.04;100695.16;3156848;28;20117;-70
2022/12/28 01:13:45;;;;;;;4.32;1.90;;;;;;;11.31;47.66;100691.75;3156950;28;20101;-69
2022/12/28 01:15:17;;;;;;;;;;;;;;;11.22;47.90;100690.31;3157735;28;20051;-70
2022/12/28 01:16:49;;;;;;;3.60;1.67;;;;;;;11.22;48.18;100692.91;3152535;28;19920;-70
2022/12/28 01:18:19;;;;;;;4.18;1.95;;;;;;;11.24;47.69;100695.44;3150660;28;20052;-69
2022/12/28 01:19:51;;;;;;;4.28;2.03;;;;;;;11.26;48.00;100696.25;3156724;28;20052;-70
2022/12/28 01:21:24;;;;;;;4.25;1.60;;;;;;;11.21;47.86;100699.03;3152648;28;20098;-70
2022/12/28 01:22:56;;;;;;;4.25;1.95;;;;;;;10.73;47.81;100610.28;3157265;28;20253;-70
2022/12/28 01:24:28;;;;;;;4.05;1.70;;;;;;;11.19;47.42;100690.41;3157046;28;20125;-70
2022/12/28 01:26:00;;;;;;;4.63;1.90;;;;;;;11.23;47.66;100688.53;3156717;28;20413;-70
2022/12/28 01:27:32;;;;;;;4.82;1.92;;;;;;;11.22;47.50;100690.31;3132295;28;20075;-68
2022/12/28 01:29:05;;;;;;;3.90;1.60;;;;;;;11.24;47.54;100695.44;3156041;28;20048;-70
2022/12/28 01:30:37;;;;;;;4.57;1.90;;;;;;;11.24;47.14;100698.06;3156938;28;20505;-70
2022/12/28 01:32:09;;;;;;;3.30;1.95;;;;;;;11.19;47.25;100684.34;3157131;28;20063;-68
2022/12/28 01:33:41;;;;;;;5.63;1.75;;;;;;;10.81;47.17;100634.34;3156763;28;20056;-70
2022/12/28 01:35:13;;;;;;;5.55;1.70;;;;;;;11.26;46.98;100693.66;3156970;28;20044;-70
2022/12/28 01:36:45;;;;;;;4.53;1.90;;;;;;;11.27;47.10;100696.22;3152901;28;20048;-69
2022/12/28 01:38:17;;;;;;;3.95;1.95;;;;;;;11.25;46.83;100687.59;3156819;28;20067;-68
2022/12/28 01:39:49;;;;;;;4.07;2.08;;;;;;;11.28;47.13;100691.84;3155548;28;20307;-69
2022/12/28 01:41:22;;;;;;;5.38;2.17;;;;;;;11.28;47.05;100690.09;3156992;28;20059;-69
2022/12/28 01:42:54;;;;;;;4.43;2.10;;;;;;;11.28;47.02;100697.06;3156774;28;20440;-70
2022/12/28 01:44:46;;;;;;;3.20;1.63;;;;;;;11.17;47.09;100673.94;3148205;28;20156;-69
2022/12/28 01:46:21;;;;;;;5.10;2.05;;;;;;;11.29;47.02;100701.38;3152006;28;20097;-69
2022/12/28 01:47:55;;;;;;;4.57;1.95;;;;;;;11.27;46.86;100688.41;3156771;28;20474;-69
2022/12/28 01:49:31;;;;;;;3.63;1.77;;;;;;;11.25;46.50;100684.97;3158716;28;20044;-70
2022/12/28 01:51:04;;;;;;;3.28;2.08;;;;;;;11.28;46.49;100687.47;3152986;28;20059;-68
2022/12/28 01:52:38;;;;;;;3.42;1.95;;;;;;;11.28;46.60;100686.63;3152525;28;20052;-69
2022/12/28 01:54:10;;;;;;;4.30;2.03;;;;;;;11.28;46.71;100695.31;3159456;28;20444;-69
2022/12/28 01:55:43;;;;;;;4.18;1.80;;;;;;;11.28;46.51;100687.47;3159283;28;20264;-68
2022/12/28 01:57:15;;;;;;;2.53;1.58;;;;;;;11.27;46.49;100695.34;3155210;28;20040;-69
2022/12/28 01:58:48;;;;;;;4.32;1.75;;;;;;;11.26;46.61;100691.91;3157123;28;20437;-69
2022/12/28 02:00:21;;;;;;;3.10;1.60;;;;;;;10.79;46.56;100610.91;3159486;28;20109;-70
2022/12/28 02:01:52;;;;;;;3.95;2.03;;;;;;;11.26;46.06;100694.50;3159193;28;20051;-70
2022/12/28 02:03:27;;;;;;;3.75;1.40;;;;;;;11.26;45.97;100691.03;3150963;28;20044;-69
2022/12/28 02:04:59;;;;;;;2.65;1.52;;;;;;;11.25;45.89;100690.19;3154787;28;20055;-70
2022/12/28 02:06:31;;;;;;;3.00;1.58;;;;;;;11.24;45.84;100696.31;3152820;28;20049;-70
2022/12/28 02:08:08;;;;;;;5.80;1.52;;;;;;;11.25;45.76;100699.78;3134371;28;20130;-70
2022/12/28 02:09:42;;;;;;;5.32;1.80;;;;;;;11.19;45.83;100685.19;3159001;28;20539;-69
2022/12/28 02:11:17;;;;;;;3.70;1.70;;;;;;;11.24;46.03;100690.22;3159231;28;20056;-70
2022/12/28 02:12:49;;;;;;;3.20;1.33;;;;;;;11.18;45.89;100686.09;3158775;28;20126;-70
2022/12/28 02:14:21;;;;;;;3.10;1.70;;;;;;;11.22;45.64;100689.47;3150980;28;20067;-69
2022/12/28 02:15:54;;;;;;;1.95;1.30;;;;;;;11.14;45.63;100681.88;3155572;28;20437;-69
2022/12/28 02:17:26;;;;;;;2.95;1.65;;;;;;;11.16;45.35;100693.97;3155881;28;20482;-69
2022/12/28 02:18:58;;;;;;;4.25;1.80;;;;;;;11.15;45.67;100686.19;3158998;28;20063;-69
2022/12/28 02:20:40;;;;;;;2.60;1.60;;;;;;;11.14;45.27;100687.94;3154468;28;20059;-69
2022/12/28 02:22:36;;;;;;;2.47;1.27;;;;;;;11.00;45.70;100682.31;3159032;28;20121;-69
2022/12/28 02:24:39;;;;;;;3.42;1.67;;;;;;;11.06;45.34;100692.56;3159057;28;20044;-69
2022/12/28 02:26:49;;;;;;;3.25;1.40;;;;;;;11.04;45.35;100691.78;3136576;28;20056;-69
2022/12/28 02:28:58;;;;;;;4.07;1.65;;;;;;;11.03;45.28;100692.69;3159072;28;20048;-70
2022/12/28 02:30:33;;;;;;;2.78;1.30;;;;;;;11.02;45.21;100688.34;3156802;28;20040;-69
2022/12/28 02:32:14;;;;;;;4.25;2.08;;;;;;;10.66;45.17;100627.88;3158903;28;20557;-68
2022/12/28 02:33:53;;;;;;;3.22;1.65;;;;;;;11.03;45.17;100687.47;3157356;28;20183;-70
2022/12/28 02:35:34;;;;;;;3.15;1.60;;;;;;;10.98;45.03;100668.50;3157373;28;20336;-69
2022/12/28 02:37:09;;;;;;;2.90;1.60;;;;;;;10.69;45.32;100627.78;3149897;28;20109;-70
2022/12/28 02:38:47;;;;;;;2.53;1.70;;;;;;;11.06;44.79;100682.16;3156836;28;20127;-69
2022/12/28 02:40:23;;;;;;;3.63;1.77;;;;;;;11.04;45.16;100677.88;3157267;28;20048;-68
2022/12/28 02:41:56;;;;;;;3.65;1.65;;;;;;;11.04;44.99;100681.34;3159598;28;20060;-69
2022/12/28 02:43:28;;;;;;;8.30;1.77;;;;;;;11.02;44.82;100679.69;3159174;28;20083;-69
2022/12/28 02:50:42;;;;;;;3.20;1.50;;;;;;;10.91;44.69;100675.69;3136286;28;20431;-69
2022/12/28 02:52:21;;;;;;;1.88;1.23;;;;;;;10.95;45.11;100686.84;3149092;28;20582;-69
2022/12/28 02:56:22;;;;;;;3.60;1.58;;;;;;;10.81;45.14;100670.81;3158597;28;20135;-70
2022/12/28 02:58:11;;;;;;;4.43;1.95;;;;;;;10.87;44.75;100688.84;3151227;28;20052;-70
2022/12/28 03:00:00;;;;;;;2.75;1.45;;;;;;;10.85;44.99;100685.44;3154189;28;20607;-69
2022/12/28 03:01:48;;;;;;;3.13;1.63;;;;;;;10.84;44.78;100687.19;3158359;28;20048;-70
2022/12/28 03:03:28;;;;;;;3.40;1.58;;;;;;;10.85;44.75;100688.03;3147493;28;20529;-70
2022/12/28 03:05:11;;;;;;;3.58;1.90;;;;;;;10.84;45.00;100686.34;3134081;28;20052;-69
2022/12/28 03:08:58;;;;;;;3.38;1.55;;;;;;;10.76;45.00;100678.75;3158471;28;20493;-69
2022/12/28 03:10:41;;;;;;;2.83;1.60;;;;;;;10.82;44.82;100691.59;3156923;28;20048;-69
2022/12/28 03:12:20;;;;;;;3.33;1.80;;;;;;;10.79;44.58;100688.22;3158406;28;20048;-69
2022/12/28 03:13:58;;;;;;;2.55;1.58;;;;;;;10.82;44.80;100694.19;3158457;28;20048;-69
2022/12/28 03:15:33;;;;;;;3.70;1.90;;;;;;;10.79;44.52;100690.84;3158376;28;20044;-70
2022/12/28 03:32:10;;;;;;;3.25;1.70;;;;;;;10.74;44.67;100684.91;3156893;28;20048;-68
2022/12/28 03:33:43;;;;;;;3.97;1.90;;;;;;;10.74;44.76;100687.53;3154294;28;20062;-69
2022/12/28 03:35:17;;;;;;;4.72;1.60;;;;;;;10.57;44.83;100662.88;3144799;28;20517;-69
2022/12/28 03:36:57;;;;;;;2.80;1.55;;;;;;;10.75;44.58;100692.69;3155031;28;20066;-69
2022/12/28 03:38:37;;;;;;;7.30;1.90;;;;;;;10.74;44.71;100692.72;3152868;28;20135;-69
2022/12/28 03:40:13;;;;;;;2.53;1.50;;;;;;;10.59;44.88;100663.69;3155317;28;20570;-69
2022/12/28 03:41:49;;;;;;;3.83;1.58;;;;;;;10.74;44.66;100688.41;3157882;28;20087;-69
2022/12/28 03:43:40;;;;;;;2.80;1.70;;;;;;;10.76;44.74;100693.53;3158306;28;20047;-68
2022/12/28 03:45:18;;;;;;;4.30;1.50;;;;;;;10.73;44.40;100691.88;3158078;28;20127;-69
2022/12/28 03:46:55;;;;;;;4.18;1.42;;;;;;;10.69;44.67;100683.31;3155783;28;20512;-69
2022/12/28 03:48:32;;;;;;;3.42;1.40;;;;;;;10.62;44.53;100678.38;3157376;28;20060;-69
2022/12/28 03:50:05;;;;;;;3.60;1.75;;;;;;;10.72;44.80;100686.75;3158171;28;20048;-69
2022/12/28 03:51:37;;;;;;;3.13;1.73;;;;;;;10.69;44.71;100687.69;3151496;28;20056;-69
2022/12/28 03:53:10;;;;;;;2.45;1.50;;;;;;;10.63;44.47;100680.91;3156486;28;20052;-69
2022/12/28 03:54:41;;;;;;;5.70;2.10;;;;;;;10.66;44.36;100690.38;3157695;28;20041;-69
2022/12/28 03:56:15;;;;;;;4.45;2.08;;;;;;;10.67;44.50;100690.31;3158070;28;20055;-69
2022/12/28 03:57:46;;;;;;;3.88;2.13;;;;;;;10.67;44.47;100692.94;3154679;28;20433;-70
2022/12/28 03:59:18;;;;;;;3.47;1.80;;;;;;;10.31;44.49;100636.78;3148421;28;20040;-69
2022/12/28 04:00:50;;;;;;;4.30;1.58;;;;;;;10.63;44.44;100683.50;3152377;28;20044;-69
2022/12/28 04:02:22;;;;;;;3.85;1.55;;;;;;;10.69;44.27;100693.75;3153117;28;20101;-69
2022/12/28 04:03:56;;;;;;;3.53;1.70;;;;;;;10.65;44.42;100681.72;3151134;28;20521;-69
2022/12/28 04:05:26;;;;;;;5.45;1.70;;;;;;;10.68;44.28;100689.44;3158115;28;20102;-69
2022/12/28 04:06:58;;;;;;;4.05;1.80;;;;;;;10.69;44.44;100701.56;3153333;28;20123;-69
2022/12/28 04:08:33;;;;;;;3.78;1.80;;;;;;;10.66;44.23;100696.44;3157678;28;20044;-69
2022/12/28 04:10:04;;;;;;;4.68;1.70;;;;;;;10.69;44.27;100700.72;3157661;28;20105;-69
2022/12/28 04:11:36;;;;;;;3.55;1.65;;;;;;;10.69;44.22;100704.16;3157614;28;20130;-69
2022/12/28 04:13:08;;;;;;;2.72;1.70;;;;;;;10.69;44.35;100704.16;3157494;28;20048;-69
2022/12/28 04:14:40;;;;;;;3.70;1.63;;;;;;;10.70;44.29;100707.63;3157858;28;20044;-71
2022/12/28 04:16:12;;;;;;;4.88;1.75;;;;;;;10.55;44.47;100680.28;3153242;28;20044;-69
2022/12/28 04:17:44;;;;;;;3.63;1.83;;;;;;;10.53;44.58;100678.63;3132775;28;20492;-69
2022/12/28 04:19:17;;;;;;;3.58;1.92;;;;;;;10.65;44.08;100705.16;3156441;28;20831;-70
2022/12/28 04:20:49;;;;;;;3.28;1.70;;;;;;;10.53;44.18;100687.31;3157668;28;20055;-69
2022/12/28 04:22:21;;;;;;;4.13;1.65;;;;;;;10.48;44.24;100684.84;3157063;28;20058;-69
2022/12/28 04:23:53;;;;;;;5.55;2.05;;;;;;;10.63;44.17;100709.56;3157620;28;20052;-69
2022/12/28 04:25:24;;;;;;;6.90;2.17;;;;;;;10.63;44.17;100706.13;3157595;28;20139;-68
2022/12/28 04:26:56;;;;;;;3.53;1.90;;;;;;;10.59;44.33;100702.75;3157331;28;20497;-68
2022/12/28 04:28:29;;;;;;;2.47;1.70;;;;;;;10.59;44.23;100700.16;3157178;28;20048;-69
2022/12/28 04:30:00;;;;;;;2.65;1.48;;;;;;;10.63;44.21;100701.75;3157512;28;20059;-68
2022/12/28 04:31:32;;;;;;;3.75;1.80;;;;;;;10.65;44.17;100705.16;3152666;28;20067;-68
2022/12/28 04:33:03;;;;;;;5.05;1.75;;;;;;;10.65;44.19;100706.94;3157539;28;20113;-69
2022/12/28 04:34:36;;;;;;;3.10;1.50;;;;;;;10.64;44.32;100703.44;3157527;28;20557;-69
2022/12/28 04:36:11;;;;;;;2.83;1.75;;;;;;;10.58;44.57;100695.81;3157316;28;20055;-68
2022/12/28 04:37:43;;;;;;;2.78;1.30;;;;;;;10.61;44.45;100695.72;3157451;28;20052;-68
2022/12/28 04:39:15;;;;;;;3.28;1.70;;;;;;;10.64;44.15;100708.66;3148399;28;20053;-70
2022/12/28 04:40:47;;;;;;;2.88;1.73;;;;;;;10.68;44.25;100709.44;3157320;28;20059;-69
2022/12/28 04:42:19;;;;;;;2.87;1.50;;;;;;;10.68;44.14;100707.69;3144276;28;20049;-69
2022/12/28 04:43:50;;;;;;;3.42;1.60;;;;;;;10.70;44.34;100705.00;3157260;28;20723;-71
2022/12/28 04:45:22;;;;;;;3.75;2.03;;;;;;;10.73;44.29;100707.53;3153724;28;20094;-69
2022/12/28 04:46:54;;;;;;;4.00;2.00;;;;;;;10.74;44.17;100711.84;3156893;28;20048;-69
2022/12/28 04:48:26;;;;;;;7.68;2.35;;;;;;;10.76;44.27;100715.22;3157361;28;20047;-71
2022/12/28 04:49:59;;;;;;;7.13;2.92;;;;;;;10.77;44.04;100710.91;3157287;28;20418;-70
2022/12/28 04:51:31;;;;;;;7.53;2.90;;;;;;;10.76;44.38;100714.38;3151376;28;20045;-69
2022/12/28 04:53:03;;;;;;;4.45;2.50;;;;;;;10.68;44.15;100701.63;3153952;28;20079;-69
2022/12/28 04:54:35;;;;;;;4.20;1.90;;;;;;;10.75;44.32;100710.09;3156743;28;20124;-69
2022/12/28 04:56:08;;;;;;;3.80;2.03;;;;;;;10.76;44.08;100717.84;3152073;28;20516;-69
2022/12/28 04:57:39;;;;;;;6.43;3.08;;;;;;;10.74;44.46;100709.25;3153485;28;20048;-70
2022/12/28 04:59:10;;;;;;;3.47;1.70;;;;;;;10.70;44.28;100710.22;3155258;28;20044;-69
2022/12/28 05:00:42;;;;;;;5.25;3.00;;;;;;;10.74;44.23;100719.66;3153312;28;20048;-70
2022/12/28 05:02:14;;;;;;;3.85;2.15;;;;;;;10.59;44.25;100700.16;3156169;28;20048;-69
2022/12/28 05:03:46;;;;;;;5.45;2.17;;;;;;;10.69;44.03;100716.34;3148950;28;20084;-70
2022/12/28 05:05:20;;;;;;;6.97;2.78;;;;;;;10.69;44.54;100714.59;3157128;28;20044;-69
2022/12/28 05:06:52;;;;;;;5.00;2.47;;;;;;;10.71;44.34;100722.38;3157341;28;20562;-70
2022/12/28 05:08:23;;;;;;;7.07;2.35;;;;;;;10.73;44.15;100725.75;3157437;28;20058;-70
2022/12/28 05:09:55;;;;;;;4.40;2.28;;;;;;;10.71;44.52;100727.56;3155704;28;20386;-69
2022/12/28 05:11:29;;;;;;;4.80;2.00;;;;;;;10.71;44.34;100724.97;3145429;28;20056;-69
2022/12/28 05:13:00;;;;;;;;;;;;;;;10.65;44.47;100728.63;3157824;28;20488;-70
2022/12/28 05:14:32;;;;;;;4.78;2.20;;;;;;;10.61;44.81;100732.19;3153166;28;19920;-69
2022/12/28 05:16:06;;;;;;;5.63;2.13;;;;;;;10.67;44.46;100726.78;3154420;28;20058;-69
2022/12/28 05:17:37;;;;;;;8.27;2.05;;;;;;;10.68;44.63;100733.72;3156581;28;20517;-69
2022/12/28 05:19:09;;;;;;;9.35;2.53;;;;;;;10.68;44.57;100736.34;3157400;28;20048;-69
2022/12/28 05:20:43;;;;;;;9.07;2.63;;;;;;;10.62;44.75;100723.50;3156784;28;20445;-69
2022/12/28 05:22:15;;;;;;;7.18;2.55;;;;;;;10.65;44.78;100730.38;3156943;28;20124;-68
2022/12/28 05:23:48;;;;;;;3.53;1.90;;;;;;;10.62;44.72;100727.88;3157862;28;20477;-69
2022/12/28 05:25:19;;;;;;;4.90;1.92;;;;;;;10.67;44.85;100744.19;3159392;28;20065;-69
2022/12/28 05:26:51;;;;;;;3.22;2.00;;;;;;;10.54;45.07;100719.41;3159556;28;20481;-68
2022/12/28 05:28:23;;;;;;;4.35;2.20;;;;;;;10.69;44.97;100748.44;3159437;28;20460;-68
2022/12/28 05:29:55;;;;;;;4.47;2.03;;;;;;;10.69;44.73;100745.00;3155079;28;20052;-68
2022/12/28 05:31:26;;;;;;;3.90;2.33;;;;;;;10.55;44.71;100719.34;3149771;28;20059;-70
2022/12/28 05:32:58;;;;;;;8.05;2.30;;;;;;;10.74;45.14;100752.66;3151439;28;20465;-69
2022/12/28 05:34:29;;;;;;;5.95;2.15;;;;;;;10.73;44.90;100750.97;3159609;28;20132;-69
2022/12/28 05:36:05;;;;;;;3.13;1.95;;;;;;;10.75;44.93;100751.78;3159664;28;20044;-69
2022/12/28 05:37:37;;;;;;;4.90;2.28;;;;;;;10.75;45.30;100749.16;3160011;28;20055;-69
2022/12/28 05:39:08;;;;;;;6.00;2.53;;;;;;;10.74;45.13;100756.13;3150898;28;20052;-69
2022/12/28 05:40:40;;;;;;;2.85;1.85;;;;;;;10.55;45.38;100723.72;3159635;28;20116;-69
2022/12/28 05:42:12;;;;;;;7.97;2.00;;;;;;;10.67;45.19;100747.63;3159538;28;20505;-70
2022/12/28 05:43:45;;;;;;;3.65;2.15;;;;;;;10.25;45.41;100682.03;3155542;28;20045;-70
2022/12/28 05:45:17;;;;;;;4.22;2.17;;;;;;;10.66;45.32;100752.91;3158843;28;20137;-70
2022/12/28 05:46:49;;;;;;;4.35;2.20;;;;;;;10.65;45.40;100759.88;3159263;28;20418;-70
2022/12/28 05:48:21;;;;;;;5.80;2.22;;;;;;;10.63;45.60;100763.41;3159454;28;20067;-68
2022/12/28 05:49:52;;;;;;;6.22;2.10;;;;;;;10.66;45.56;100766.78;3159349;28;20445;-69
2022/12/28 05:51:27;;;;;;;3.95;2.47;;;;;;;10.65;45.52;100770.28;3153745;28;20055;-69
2022/12/28 05:52:59;;;;;;;6.03;2.28;;;;;;;10.65;45.64;100767.69;3155832;28;20105;-69
2022/12/28 05:54:31;;;;;;;5.80;2.90;;;;;;;10.64;45.97;100773.78;3159322;28;20076;-69
2022/12/28 05:56:04;;;;;;;4.90;2.47;;;;;;;10.32;45.86;100729.59;3159458;28;20421;-69
2022/12/28 05:57:36;;;;;;;6.00;2.10;;;;;;;10.64;45.77;100781.59;3155439;28;20113;-69
2022/12/28 05:59:08;;;;;;;4.95;2.72;;;;;;;10.59;45.99;100767.88;3148618;28;20106;-69
2022/12/28 06:00:40;;;;;;;5.80;2.17;;;;;;;10.61;46.21;100773.88;3152103;28;20052;-69
2022/12/28 06:02:11;;;;;;;4.70;2.47;;;;;;;10.60;46.22;100781.75;3159139;28;20054;-70
2022/12/28 06:03:44;;;;;;;5.50;2.90;;;;;;;10.43;46.47;100757.03;3151536;28;20433;-69
2022/12/28 06:05:16;;;;;;;5.13;2.97;;;;;;;10.53;46.44;100778.47;3159146;28;20048;-69
2022/12/28 06:06:49;;;;;;;7.32;2.58;;;;;;;10.56;46.46;100782.72;3159118;28;20204;-69
2022/12/28 06:08:20;;;;;;;7.32;3.30;;;;;;;10.54;46.80;100782.78;3159257;28;20051;-69
2022/12/28 06:09:52;;;;;;;5.50;2.70;;;;;;;10.54;46.88;100779.31;3159194;28;20158;-70
2022/12/28 06:11:27;;;;;;;5.00;3.10;;;;;;;10.56;46.85;100782.72;3159179;28;20048;-69
2022/12/28 06:12:59;;;;;;;5.90;2.97;;;;;;;10.52;46.91;100775.91;3154831;28;20118;-69
2022/12/28 06:14:31;;;;;;;7.25;3.40;;;;;;;10.47;46.62;100770.84;3159128;28;20056;-69
2022/12/28 06:16:05;;;;;;;7.45;2.97;;;;;;;10.53;47.04;100781.06;3156186;28;20051;-70
2022/12/28 06:17:36;;;;;;;5.10;2.90;;;;;;;10.50;46.93;100782.91;3158521;28;20055;-70
2022/12/28 06:19:13;;;;;;;5.70;2.70;;;;;;;10.41;46.88;100764.06;3158943;28;20052;-70
2022/12/28 06:20:44;;;;;;;6.90;3.47;;;;;;;10.32;46.94;100753.88;3158926;28;20056;-70
2022/12/28 06:22:17;;;;;;;6.00;3.28;;;;;;;10.45;47.08;100778.69;3158903;28;20047;-70
2022/12/28 06:23:50;;;;;;;4.65;2.85;;;;;;;10.43;47.20;100784.84;3159059;28;20044;-70
2022/12/28 06:25:21;;;;;;;5.87;3.03;;;;;;;10.42;47.25;100780.53;3158540;28;20048;-70
2022/12/28 06:26:53;;;;;;;6.75;2.80;;;;;;;10.40;47.04;100775.34;3158654;28;20585;-70
2022/12/28 06:28:25;;;;;;;8.10;3.60;;;;;;;10.35;47.46;100777.25;3153743;28;20040;-69
2022/12/28 06:29:57;;;;;;;6.90;3.20;;;;;;;10.34;47.09;100772.06;3159135;28;20105;-70
2022/12/28 06:31:31;;;;;;;7.68;3.88;;;;;;;10.41;47.46;100784.88;3158712;28;20044;-70
2022/12/28 06:33:03;;;;;;;7.20;3.47;;;;;;;10.41;47.38;100786.63;3158469;28;20052;-68
2022/12/28 06:34:35;;;;;;;6.93;2.85;;;;;;;10.44;46.94;100789.13;3158511;28;20566;-69
2022/12/28 06:36:11;;;;;;;6.28;3.00;;;;;;;10.43;47.02;100787.44;3159026;28;20540;-68
2022/12/28 06:37:47;;;;;;;7.80;3.10;;;;;;;10.48;47.13;100786.41;3155168;28;20434;-68
2022/12/28 06:39:17;;;;;;;5.72;3.08;;;;;;;10.49;47.25;100789.84;3144633;28;20056;-69
2022/12/28 06:40:49;;;;;;;7.65;2.40;;;;;;;9.99;47.12;100706.22;3148637;28;20389;-69
2022/12/28 06:42:21;;;;;;;7.95;2.50;;;;;;;10.54;47.09;100785.38;3154710;28;20052;-70
2022/12/28 06:43:54;;;;;;;7.25;3.08;;;;;;;10.57;46.98;100789.66;3158908;28;20048;-69
2022/12/28 06:45:25;;;;;;;12.13;3.60;;;;;;;10.57;47.07;100782.69;3159289;28;20102;-69
2022/12/28 06:46:57;;;;;;;6.78;3.65;;;;;;;10.57;46.59;100779.22;3146677;28;20910;-70
2022/12/28 06:48:29;;;;;;;5.47;3.40;;;;;;;10.62;46.58;100782.56;3147112;28;20079;-68
2022/12/28 06:50:01;;;;;;;13.20;3.63;;;;;;;10.62;46.79;100792.97;3157092;28;20545;-69
2022/12/28 06:51:37;;;;;;;7.13;3.53;;;;;;;10.60;46.88;100780.00;3152323;28;20553;-69
2022/12/28 06:53:10;;;;;;;8.43;3.78;;;;;;;10.61;46.63;100784.28;3155784;28;20534;-68
2022/12/28 06:54:42;;;;;;;7.32;3.90;;;;;;;10.66;46.66;100789.38;3158145;28;20385;-68
2022/12/28 06:56:15;;;;;;;6.25;3.75;;;;;;;10.68;46.79;100795.41;3153048;28;20044;-72
2022/12/28 06:57:47;;;;;;;7.43;3.90;;;;;;;10.70;46.74;100797.03;3154177;28;20093;-70
2022/12/28 06:59:19;;;;;;;5.82;3.42;;;;;;;10.68;46.76;100795.41;3156784;28;20044;-69
2022/12/28 07:00:50;;;;;;;6.68;3.38;;;;;;;10.68;46.59;100801.47;3158266;28;20105;-69
2022/12/28 07:02:22;;;;;;;9.43;4.38;;;;;;;10.72;46.63;100801.38;3157937;28;20051;-69
2022/12/28 07:03:56;;;;;;;5.13;3.03;;;;;;;10.74;46.72;100804.75;3150951;28;20051;-69
2022/12/28 07:05:28;;;;;;;10.63;5.10;;;;;;;10.76;46.45;100808.19;3158393;28;20044;-70
2022/12/28 07:07:00;;;;;;;15.57;7.00;;;;;;;10.75;46.46;100803.88;3158290;28;20121;-68
2022/12/28 07:08:34;;;;;;;14.43;6.35;;;;;;;10.81;46.63;100816.72;3158336;28;20432;-69
2022/12/28 07:10:06;;;;;;;14.23;6.20;;;;;;;10.71;46.45;100787.50;3158078;28;20102;-69
2022/12/28 07:11:38;;;;;;;10.35;4.32;;;;;;;10.85;46.69;100810.50;3154017;28;20071;-68
2022/12/28 07:13:09;;;;;;;7.30;3.70;;;;;;;10.83;46.82;100801.91;3158283;28;20048;-70
2022/12/28 07:14:41;;;;;;;14.15;4.90;;;;;;;10.85;46.85;100808.75;3158366;28;20144;-69
2022/12/28 07:16:15;;;;;;;7.57;3.80;;;;;;;10.87;46.78;100808.72;3154190;28;20048;-69
2022/12/28 07:17:47;;;;;;;10.45;4.28;;;;;;;10.88;46.87;100813.91;3133589;28;20059;-69
2022/12/28 07:19:19;;;;;;;8.23;4.00;;;;;;;10.94;46.82;100838.91;3157546;28;20048;-69
2022/12/28 07:20:51;;;;;;;8.23;4.38;;;;;;;10.97;46.80;100825.78;3155456;28;20048;-69
2022/12/28 07:22:23;;;;;;;9.35;4.15;;;;;;;10.93;46.99;100822.41;3155929;28;20441;-69
2022/12/28 07:23:57;;;;;;;8.63;4.45;;;;;;;11.00;46.91;100832.66;3158474;28;20048;-68
2022/12/28 07:25:28;;;;;;;12.80;4.47;;;;;;;10.95;46.84;100824.97;3157740;28;20048;-69
2022/12/28 07:27:00;;;;;;;9.30;4.07;;;;;;;10.64;47.05;100794.63;3154228;28;20048;-69
2022/12/28 07:28:31;;;;;;;10.95;4.45;;;;;;;11.02;47.12;100846.50;3158024;28;20044;-70
2022/12/28 07:30:04;;;;;;;9.32;3.97;;;;;;;11.02;47.02;100849.94;3158325;28;20478;-70
2022/12/28 07:31:37;;;;;;;11.77;4.43;;;;;;;10.29;47.08;100724.50;3157743;28;20513;-69
2022/12/28 07:33:09;;;;;;;8.48;3.92;;;;;;;11.01;47.14;100853.47;3153890;28;20425;-70
2022/12/28 07:34:41;;;;;;;7.72;3.78;;;;;;;11.03;47.20;100850.81;3158122;28;20441;-69
2022/12/28 07:36:14;;;;;;;8.55;3.90;;;;;;;11.02;47.20;100846.50;3158340;28;20048;-70
2022/12/28 07:37:46;;;;;;;14.63;4.53;;;;;;;11.03;47.02;100848.19;3157835;28;20052;-70
2022/12/28 07:39:19;;;;;;;7.13;3.50;;;;;;;11.05;47.32;100849.00;3148992;28;20075;-70
2022/12/28 07:40:51;;;;;;;6.40;3.25;;;;;;;11.05;47.20;100847.25;3153317;28;20056;-70
2022/12/28 07:42:23;;;;;;;8.18;3.90;;;;;;;11.05;47.12;100841.19;3158075;28;20075;-70